Bookmark and Share
Track history (hours):
 

Smit Orleans

Last reported at 2014-Apr-23 06:34 UTC. Time now 2014-Apr-23 06:46 UTC.
Position N 49°17' W 123°04'.

Length 29 m; draft 5.1 m.

Type: . MMSI: 316012721.

NotesDate/timePositionNaut miles runAvg speedWind from/ knotsBaromVisibWave heightAir tempDewpointWater temp
2014-Apr-23 06:34N 49°17' W 123°04'0 0.0
2014-Apr-23 05:34N 49°17' W 123°04'0 0.0
2014-Apr-23 04:34N 49°17' W 123°04'2 2.3
2014-Apr-23 03:34N 49°18' W 123°07'2 2.3
2014-Apr-23 02:33N 49°17' W 123°04'0 0.0
2014-Apr-23 01:34N 49°17' W 123°04'0 0.0
2014-Apr-23 00:34N 49°17' W 123°04'0 0.0
2014-Apr-22 23:34N 49°17' W 123°04'0 0.0
2014-Apr-22 22:33N 49°17' W 123°04'0 0.0
2014-Apr-22 21:34N 49°17' W 123°04'0 0.0
2014-Apr-22 20:33N 49°17' W 123°04'2 1.8
2014-Apr-22 19:34N 49°18' W 123°06'1 0.6
2014-Apr-22 18:34N 49°18' W 123°07'2 2.2
2014-Apr-22 17:34N 49°17' W 123°04'0 0.0
2014-Apr-22 16:34N 49°17' W 123°04'0 0.0
2014-Apr-22 15:34N 49°17' W 123°04'0 0.0
2014-Apr-22 14:34N 49°17' W 123°04'0 0.0
2014-Apr-22 13:34N 49°17' W 123°04'0 0.0
2014-Apr-22 12:33N 49°17' W 123°04'0 0.0
2014-Apr-22 11:34N 49°17' W 123°04'0 0.0
2014-Apr-22 10:34N 49°17' W 123°04'0 0.0
2014-Apr-22 09:34N 49°17' W 123°04'0 0.0
2014-Apr-22 08:33N 49°17' W 123°04'0 0.0
2014-Apr-22 07:34N 49°17' W 123°04'0 0.0
2014-Apr-22 06:34N 49°17' W 123°04'0 0.0
2014-Apr-22 05:33N 49°17' W 123°04'0 0.0
2014-Apr-22 04:34N 49°17' W 123°04'0 0.0
2014-Apr-22 03:34N 49°17' W 123°04'0 0.0
2014-Apr-22 02:34N 49°17' W 123°04'0 0.0
2014-Apr-22 01:34N 49°17' W 123°04'0 0.0
2014-Apr-22 00:34N 49°17' W 123°04'0 0.0
2014-Apr-21 23:34N 49°17' W 123°04'0 0.0
2014-Apr-21 22:34N 49°17' W 123°04'0 0.0
2014-Apr-21 21:34N 49°17' W 123°04'0 0.0
2014-Apr-21 20:34N 49°17' W 123°04'0 0.0
2014-Apr-21 19:34N 49°17' W 123°04'0 0.0
2014-Apr-21 18:34N 49°17' W 123°04'0 0.0
2014-Apr-21 17:33N 49°17' W 123°04'0 0.0
2014-Apr-21 16:34N 49°17' W 123°04'0 0.0
2014-Apr-21 15:33N 49°17' W 123°04'0 0.0
2014-Apr-21 14:34N 49°17' W 123°04'0 0.0
2014-Apr-21 13:34N 49°17' W 123°04'0 0.0
2014-Apr-21 12:34N 49°17' W 123°04'0 0.0
2014-Apr-21 11:34N 49°17' W 123°04'0 0.0
2014-Apr-21 10:34N 49°17' W 123°04'0 0.0
2014-Apr-21 09:34N 49°17' W 123°04'0 0.0
2014-Apr-21 08:33N 49°17' W 123°04'0 0.0
2014-Apr-21 07:34N 49°17' W 123°04'0 0.0
2014-Apr-21 06:34N 49°17' W 123°04'0 0.0
2014-Apr-21 05:33N 49°17' W 123°04'0 0.0
2014-Apr-21 04:34N 49°17' W 123°04'0 0.0
2014-Apr-21 03:34N 49°17' W 123°04'0 0.0
2014-Apr-21 02:34N 49°17' W 123°04'0 0.0
2014-Apr-21 01:34N 49°17' W 123°04'0 0.0
2014-Apr-21 00:33N 49°17' W 123°04'0 0.0
2014-Apr-20 23:34N 49°17' W 123°04'0 0.0
2014-Apr-20 22:34N 49°17' W 123°04'0 0.0
2014-Apr-20 21:34N 49°17' W 123°04'0 0.0
2014-Apr-20 20:33N 49°17' W 123°04'0 0.0
2014-Apr-20 19:34N 49°17' W 123°04'0 0.0
2014-Apr-20 18:34N 49°17' W 123°04'0 0.0
2014-Apr-20 17:34N 49°17' W 123°04'0 0.0
2014-Apr-20 16:33N 49°17' W 123°04'0 0.0
2014-Apr-20 15:34N 49°17' W 123°04'0 0.0
2014-Apr-20 14:33N 49°17' W 123°04'0 0.0
2014-Apr-20 13:34N 49°17' W 123°04'0 0.0
2014-Apr-20 12:34N 49°17' W 123°04'9 9.0
2014-Apr-20 11:34N 49°20' W 123°17'1211.9
2014-Apr-20 10:33N 49°32' W 123°16'9 4.4
2014-Apr-20 08:33N 49°40' W 123°12'1 1.1
2014-Apr-20 07:31N 49°41' W 123°10'1 0.3
2014-Apr-20 04:32N 49°40' W 123°11'8 8.2
2014-Apr-20 03:33N 49°33' W 123°16'8 8.4
2014-Apr-20 02:33N 49°25' W 123°18'7 7.1
2014-Apr-20 01:34N 49°19' W 123°10'5 4.7
2014-Apr-20 00:34N 49°17' W 123°04'0 0.0
2014-Apr-19 23:34N 49°17' W 123°04'0 0.0
2014-Apr-19 22:33N 49°17' W 123°04'0 0.0
2014-Apr-19 21:34N 49°17' W 123°04'0 0.0
2014-Apr-19 20:34N 49°17' W 123°04'0 0.0
2014-Apr-19 19:34N 49°17' W 123°04'0 0.0
2014-Apr-19 18:34N 49°17' W 123°04'0 0.0
2014-Apr-19 17:34N 49°17' W 123°04'0 0.0
2014-Apr-19 16:34N 49°17' W 123°04'0 0.0
2014-Apr-19 15:34N 49°17' W 123°04'0 0.0
2014-Apr-19 14:33N 49°17' W 123°04'0 0.0
2014-Apr-19 13:34N 49°17' W 123°04'0 0.0
2014-Apr-19 12:34N 49°17' W 123°04'0 0.0
2014-Apr-19 11:33N 49°17' W 123°04'0 0.0
2014-Apr-19 10:34N 49°17' W 123°04'0 0.0
2014-Apr-19 09:33N 49°17' W 123°04'0 0.0
2014-Apr-19 08:33N 49°17' W 123°04'0 0.0
2014-Apr-19 07:33N 49°17' W 123°04'0 0.0
2014-Apr-19 06:34N 49°17' W 123°04'2 2.5
2014-Apr-19 05:34N 49°19' W 123°07'1 0.7
2014-Apr-19 04:34N 49°18' W 123°06'1 1.2
2014-Apr-19 03:33N 49°18' W 123°04'0 0.5
2014-Apr-19 02:34N 49°18' W 123°04'1 0.6
2014-Apr-19 01:34N 49°18' W 123°03'1 0.6
2014-Apr-19 00:33N 49°18' W 123°04'0 0.3
2014-Apr-18 23:34N 49°18' W 123°04'0 0.2
2014-Apr-18 22:34N 49°17' W 123°04'1 0.5
2014-Apr-18 21:34N 49°17' W 123°04'0 0.1
2014-Apr-18 20:34N 49°17' W 123°05'1 0.6
2014-Apr-18 19:34N 49°17' W 123°04'0 0.0
2014-Apr-18 18:34N 49°17' W 123°04'0 0.0
2014-Apr-18 17:34N 49°17' W 123°04'0 0.0
2014-Apr-18 16:34N 49°17' W 123°04'3 3.2
2014-Apr-18 15:34N 49°19' W 123°08'1 0.8
2014-Apr-18 14:34N 49°18' W 123°07'2 2.3
2014-Apr-18 13:33N 49°17' W 123°04'0 0.0
2014-Apr-18 12:33N 49°17' W 123°04'0 0.0
2014-Apr-18 11:34N 49°17' W 123°04'0 0.0
2014-Apr-18 10:34N 49°17' W 123°04'0 0.0
2014-Apr-18 09:34N 49°17' W 123°04'0 0.0
2014-Apr-18 08:34N 49°17' W 123°04'0 0.0
2014-Apr-18 07:34N 49°17' W 123°04'0 0.0
2014-Apr-18 06:34N 49°17' W 123°04'0 0.0
2014-Apr-18 05:34N 49°17' W 123°04'0 0.0
2014-Apr-18 04:33N 49°17' W 123°04'0 0.0
2014-Apr-18 03:33N 49°17' W 123°04'0 0.0
2014-Apr-18 02:34N 49°17' W 123°04'0 0.0
2014-Apr-18 01:33N 49°17' W 123°04'0 0.0
2014-Apr-18 00:33N 49°17' W 123°04'0 0.0
2014-Apr-17 23:34N 49°17' W 123°04'0 0.0
2014-Apr-17 22:34N 49°17' W 123°04'0 0.0
2014-Apr-17 21:33N 49°17' W 123°04'0 0.0
2014-Apr-17 20:34N 49°17' W 123°04'0 0.0
2014-Apr-17 19:34N 49°17' W 123°04'1 1.4
2014-Apr-17 18:34N 49°17' W 123°06'0 0.0
2014-Apr-17 17:33N 49°17' W 123°06'0 0.1
2014-Apr-17 16:34N 49°17' W 123°06'0 0.0
2014-Apr-17 15:34N 49°17' W 123°06'1 1.2
2014-Apr-17 14:34N 49°17' W 123°04'0 0.0
2014-Apr-17 13:34N 49°17' W 123°04'0 0.0
2014-Apr-17 12:34N 49°17' W 123°04'0 0.0
2014-Apr-17 11:34N 49°17' W 123°04'0 0.0
2014-Apr-17 10:34N 49°17' W 123°04'0 0.0
2014-Apr-17 09:34N 49°17' W 123°04'0 0.0
2014-Apr-17 08:34N 49°17' W 123°04'0 0.0
2014-Apr-17 07:34N 49°17' W 123°04'0 0.0
2014-Apr-17 06:34N 49°17' W 123°04'0 0.0
2014-Apr-17 05:34N 49°17' W 123°04'0 0.0
2014-Apr-17 04:34N 49°17' W 123°04'0 0.0
2014-Apr-17 03:34N 49°17' W 123°04'0 0.0
2014-Apr-17 02:33N 49°17' W 123°04'0 0.0
2014-Apr-17 01:34N 49°17' W 123°04'0 0.0
2014-Apr-17 00:34N 49°17' W 123°04'0 0.0
2014-Apr-16 23:34N 49°17' W 123°04'0 0.0
2014-Apr-16 22:34N 49°17' W 123°04'0 0.0
2014-Apr-16 21:34N 49°17' W 123°04'0 0.0
2014-Apr-16 20:33N 49°17' W 123°04'0 0.0
2014-Apr-16 19:34N 49°17' W 123°04'0 0.0
2014-Apr-16 18:34N 49°17' W 123°04'0 0.0
2014-Apr-16 17:33N 49°17' W 123°04'0 0.0
2014-Apr-16 16:34N 49°17' W 123°04'0 0.0
2014-Apr-16 15:34N 49°17' W 123°04'0 0.0
2014-Apr-16 14:34N 49°17' W 123°04'0 0.0
2014-Apr-16 13:34N 49°17' W 123°04'0 0.0
2014-Apr-16 12:34N 49°17' W 123°04'0 0.0
2014-Apr-16 11:34N 49°17' W 123°04'0 0.0
2014-Apr-16 10:34N 49°17' W 123°04'0 0.0
2014-Apr-16 09:33N 49°17' W 123°04'0 0.0
2014-Apr-16 08:34N 49°17' W 123°04'0 0.0
2014-Apr-16 07:34N 49°17' W 123°04'0 0.0
2014-Apr-16 06:34N 49°17' W 123°04'0 0.0
2014-Apr-16 05:34N 49°17' W 123°04'0 0.0
2014-Apr-16 04:34N 49°17' W 123°04'0 0.0
2014-Apr-16 03:33N 49°17' W 123°04'0 0.0
2014-Apr-16 02:34N 49°17' W 123°04'0 0.0
2014-Apr-16 01:34N 49°17' W 123°04'0 0.0
2014-Apr-16 00:34N 49°17' W 123°04'0 0.0
2014-Apr-15 23:34N 49°17' W 123°04'0 0.0
2014-Apr-15 22:34N 49°17' W 123°04'0 0.0
2014-Apr-15 21:34N 49°17' W 123°04'0 0.0
2014-Apr-15 20:34N 49°17' W 123°04'0 0.0
2014-Apr-15 19:34N 49°17' W 123°04'0 0.0
2014-Apr-15 18:34N 49°17' W 123°04'0 0.0
2014-Apr-15 17:34N 49°17' W 123°04'0 0.0
2014-Apr-15 16:34N 49°17' W 123°04'0 0.0
2014-Apr-15 15:34N 49°17' W 123°04'0 0.0
2014-Apr-15 14:34N 49°17' W 123°04'0 0.0
2014-Apr-15 12:34N 49°17' W 123°04'0 0.0
2014-Apr-15 11:34N 49°17' W 123°04'0 0.0
2014-Apr-15 10:34N 49°17' W 123°04'0 0.0
2014-Apr-15 09:34N 49°17' W 123°04'0 0.0
2014-Apr-15 08:34N 49°17' W 123°04'0 0.0
2014-Apr-15 07:34N 49°17' W 123°04'0 0.0
2014-Apr-15 06:34N 49°17' W 123°04'0 0.0
2014-Apr-15 05:34N 49°17' W 123°04'0 0.0
2014-Apr-15 03:34N 49°17' W 123°04'0 0.0
2014-Apr-15 02:34N 49°17' W 123°04'1 0.8
2014-Apr-15 01:34N 49°18' W 123°03'1 0.9
2014-Apr-15 00:34N 49°18' W 123°05'1 0.7
2014-Apr-14 23:34N 49°17' W 123°04'0 0.0
2014-Apr-14 22:34N 49°17' W 123°04'0 0.0
2014-Apr-14 21:34N 49°17' W 123°04'0 0.0
2014-Apr-14 20:34N 49°17' W 123°04'0 0.0
2014-Apr-14 19:34N 49°17' W 123°04'0 0.0
2014-Apr-14 18:34N 49°17' W 123°04'0 0.0
2014-Apr-14 17:34N 49°17' W 123°04'0 0.0
2014-Apr-14 16:34N 49°17' W 123°04'0 0.0
2014-Apr-14 15:34N 49°17' W 123°04'0 0.0
2014-Apr-14 14:34N 49°17' W 123°04'0 0.0
2014-Apr-14 13:33N 49°17' W 123°04'0 0.0
2014-Apr-14 11:33N 49°17' W 123°04'0 0.4
2014-Apr-14 10:33N 49°18' W 123°03'0 0.4
2014-Apr-14 09:33N 49°17' W 123°04'0 0.0
2014-Apr-14 08:34N 49°17' W 123°04'0 0.0
2014-Apr-14 07:33N 49°17' W 123°04'0 0.0
2014-Apr-14 06:34N 49°17' W 123°04'7 7.0
2014-Apr-14 05:34N 49°19' W 123°14'7 1.0
2014-Apr-13 22:34N 49°18' W 123°03'1 0.8
2014-Apr-13 21:33N 49°17' W 123°04'1 1.1
2014-Apr-13 20:34N 49°18' W 123°02'1 1.2
2014-Apr-13 19:33N 49°17' W 123°04'0 0.0
2014-Apr-13 18:34N 49°17' W 123°04'0 0.0
2014-Apr-13 17:34N 49°17' W 123°04'0 0.0
2014-Apr-13 16:33N 49°17' W 123°04'0 0.0
2014-Apr-13 15:34N 49°17' W 123°04'0 0.0
2014-Apr-13 14:34N 49°17' W 123°04'0 0.0
2014-Apr-13 13:34N 49°17' W 123°04'0 0.0
2014-Apr-13 12:34N 49°17' W 123°04'0 0.0
2014-Apr-13 11:33N 49°17' W 123°04'0 0.0
2014-Apr-13 10:34N 49°17' W 123°04'0 0.0
2014-Apr-13 09:33N 49°17' W 123°04'0 0.0
2014-Apr-13 08:34N 49°17' W 123°04'0 0.0
2014-Apr-13 07:34N 49°17' W 123°04'0 0.0
2014-Apr-13 06:34N 49°17' W 123°04'  

Dump ship's entire track history

sailing weather and tide predictions

Smit Orleans — CFN5087 — position and weather